createdAt,value
2019-01-26T00:01:38.851Z,38.37
2019-01-26T00:05:45.382Z,34.33
2019-01-26T00:09:51.121Z,38.87
2019-01-26T00:13:58.630Z,39.53
2019-01-26T00:18:05.558Z,38.97
2019-01-26T00:22:13.198Z,38.13
2019-01-26T00:26:21.107Z,39.73
2019-01-26T00:30:31.691Z,36.73
2019-01-26T00:34:38.617Z,40.80
2019-01-26T00:38:45.140Z,40.60
2019-01-26T00:42:51.691Z,39.80
2019-01-26T00:47:01.659Z,40.07
2019-01-26T00:51:09.587Z,30.77
2019-01-26T00:55:16.575Z,28.23
2019-01-26T00:59:29.470Z,28.97
2019-01-26T01:03:38.809Z,38.53
2019-01-26T01:07:51.168Z,40.70
2019-01-26T01:11:58.155Z,38.83
2019-01-26T01:16:08.098Z,38.43
2019-01-26T01:20:20.802Z,27.47
2019-01-26T01:24:24.324Z,39.10
2019-01-26T01:28:52.577Z,33.93
2019-01-26T01:32:59.045Z,39.17
2019-01-26T01:41:16.282Z,37.80
2019-01-26T01:45:31.682Z,38.20
2019-01-26T01:49:39.620Z,36.57
2019-01-26T01:53:47.741Z,35.60
2019-01-26T01:57:54.266Z,30.73
2019-01-26T02:02:00.804Z,25.97
2019-01-26T02:06:10.455Z,38.70
2019-01-26T02:10:19.340Z,39.50
2019-01-26T02:14:47.233Z,40.10
2019-01-26T02:18:57.857Z,41.77
2019-01-26T02:23:05.252Z,39.20
2019-01-26T02:27:12.441Z,32.37
2019-01-26T02:31:18.812Z,38.47
2019-01-26T02:35:27.296Z,36.40
2019-01-26T02:39:34.420Z,39.63
2019-01-26T02:43:44.849Z,41.10
2019-01-26T02:47:51.800Z,38.07
2019-01-26T02:51:59.681Z,35.50
2019-01-26T02:56:26.357Z,34.87
2019-01-26T03:00:35.172Z,38.63
2019-01-26T03:09:30.408Z,35.87
2019-01-26T03:13:36.904Z,34.03
2019-01-26T03:17:45.257Z,40.07
2019-01-26T03:21:53.113Z,35.00
2019-01-26T03:25:59.779Z,39.13
2019-01-26T03:30:27.943Z,37.80
2019-01-26T03:34:35.011Z,38.03
2019-01-26T03:38:43.804Z,38.57
2019-01-26T03:42:51.120Z,36.87
2019-01-26T03:46:57.627Z,37.17
2019-01-26T03:51:04.943Z,36.87
2019-01-26T03:55:13.563Z,36.20
2019-01-26T03:59:20.637Z,36.20
2019-01-26T04:04:05.904Z,35.20
2019-01-26T04:08:12.688Z,33.63
2019-01-26T04:12:18.995Z,34.93
2019-01-26T04:16:25.415Z,35.07
2019-01-26T04:20:32.019Z,37.13
2019-01-26T04:24:40.101Z,35.53
2019-01-26T04:28:46.409Z,33.80
2019-01-26T04:32:52.884Z,37.70
2019-01-26T04:36:59.210Z,34.70
2019-01-26T04:41:06.082Z,33.20
2019-01-26T04:45:15.021Z,35.10
2019-01-26T04:49:21.348Z,35.27
2019-01-26T04:53:27.776Z,35.37
2019-01-26T04:57:35.740Z,34.87
2019-01-26T05:01:42.041Z,35.40
2019-01-26T05:05:48.565Z,37.90
2019-01-26T05:09:54.885Z,36.20
2019-01-26T05:14:02.087Z,37.07
2019-01-26T05:18:08.366Z,37.33
2019-01-26T05:22:14.790Z,37.10
2019-01-26T05:26:21.164Z,35.17
2019-01-26T05:30:30.267Z,33.73
2019-01-26T05:34:36.659Z,35.30
2019-01-26T05:38:43.122Z,33.90
2019-01-26T05:42:49.509Z,36.53
2019-01-26T05:46:56.548Z,36.87
2019-01-26T05:51:03.186Z,34.93
2019-01-26T05:55:09.777Z,29.47
2019-01-26T05:59:17.133Z,33.33
2019-01-26T06:03:23.877Z,35.53
2019-01-26T06:07:30.406Z,34.63
2019-01-26T06:11:37.110Z,33.83
2019-01-26T06:15:43.416Z,34.37
2019-01-26T06:19:49.891Z,35.63
2019-01-26T06:23:56.275Z,35.90
2019-01-26T06:28:02.672Z,36.53
2019-01-26T06:32:09.264Z,37.83
2019-01-26T06:36:17.273Z,36.93
2019-01-26T06:40:23.623Z,35.90
2019-01-26T06:44:29.931Z,40.43
2019-01-26T06:48:36.372Z,37.97
2019-01-26T06:52:43.059Z,37.67
2019-01-26T06:56:49.407Z,39.37
2019-01-26T07:00:56.215Z,40.47
2019-01-26T07:05:13.340Z,38.23
2019-01-26T07:09:20.767Z,39.83
2019-01-26T07:13:27.096Z,39.30
2019-01-26T07:17:33.436Z,38.03
2019-01-26T07:21:39.792Z,40.40
2019-01-26T07:25:46.311Z,38.67
2019-01-26T07:29:52.612Z,39.50
2019-01-26T07:33:59.279Z,40.30
2019-01-26T07:42:13.999Z,41.60
2019-01-26T07:46:20.325Z,40.83
2019-01-26T07:50:26.903Z,39.50
2019-01-26T07:54:33.252Z,39.93
2019-01-26T07:58:40.508Z,40.67
2019-01-26T08:02:48.721Z,39.83
2019-01-26T08:07:14.655Z,40.30
2019-01-26T08:11:21.214Z,38.83
2019-01-26T08:15:30.512Z,38.67
2019-01-26T08:19:40.099Z,39.93
2019-01-26T08:23:48.563Z,40.23
2019-01-26T08:27:55.743Z,38.57
2019-01-26T08:32:02.957Z,38.27
2019-01-26T08:36:11.762Z,36.63
2019-01-26T08:40:21.761Z,37.17
2019-01-26T08:44:29.557Z,38.17
2019-01-26T08:48:38.377Z,38.80
2019-01-26T08:52:45.645Z,35.43
2019-01-26T08:56:52.066Z,38.07
2019-01-26T09:01:01.311Z,38.13
2019-01-26T09:05:11.460Z,36.73
2019-01-26T09:09:19.431Z,34.17
2019-01-26T09:13:26.405Z,34.73
2019-01-26T09:17:32.859Z,37.13
2019-01-26T09:22:39.315Z,35.63
2019-01-26T09:26:45.716Z,34.13
2019-01-26T09:30:55.241Z,36.63
2019-01-26T09:35:05.482Z,38.87
2019-01-26T09:39:13.273Z,38.03
2019-01-26T09:43:19.918Z,37.37
2019-01-26T09:47:25.683Z,37.13
2019-01-26T09:51:32.093Z,35.40
2019-01-26T09:55:39.689Z,36.30
2019-01-26T09:59:45.994Z,38.10
2019-01-26T10:03:53.840Z,38.33
2019-01-26T10:08:02.716Z,38.67
2019-01-26T10:12:09.112Z,39.60
2019-01-26T10:16:15.617Z,38.63
2019-01-26T10:20:23.925Z,38.60
2019-01-26T10:24:30.400Z,38.10
2019-01-26T10:28:37.727Z,38.47
2019-01-26T10:32:44.412Z,37.40
2019-01-26T10:36:55.513Z,37.90
2019-01-26T10:41:21.981Z,39.67
2019-01-26T10:45:30.907Z,37.13
2019-01-26T10:49:39.410Z,38.93
2019-01-26T10:53:45.761Z,35.70
2019-01-26T10:57:52.720Z,38.13
2019-01-26T11:02:02.212Z,39.83
2019-01-26T11:06:08.571Z,38.80
2019-01-26T11:10:17.777Z,36.50
2019-01-26T11:14:24.164Z,36.70
2019-01-26T11:18:30.805Z,38.10
2019-01-26T11:22:37.092Z,38.30
2019-01-26T11:26:49.397Z,36.23
2019-01-26T11:30:54.172Z,37.27
2019-01-26T11:35:04.178Z,36.80
2019-01-26T11:39:11.893Z,38.30
2019-01-26T11:43:18.424Z,35.97
2019-01-26T11:47:26.713Z,38.43
2019-01-26T11:51:52.754Z,37.27
2019-01-26T11:56:09.603Z,35.70
2019-01-26T12:00:38.792Z,38.80
2019-01-26T12:04:47.925Z,39.13
2019-01-26T12:08:54.903Z,38.67
2019-01-26T12:13:04.503Z,39.13
2019-01-26T12:21:19.724Z,38.53
2019-01-26T12:25:29.574Z,38.90
2019-01-26T12:29:36.253Z,38.37
2019-01-26T12:33:42.685Z,39.47
2019-01-26T12:37:49.347Z,37.37
2019-01-26T12:41:57.553Z,35.43
2019-01-26T12:46:05.579Z,35.57
2019-01-26T12:50:13.185Z,36.20
2019-01-26T12:54:19.616Z,37.60
2019-01-26T12:58:27.667Z,38.17
2019-01-26T13:02:33.977Z,39.00
2019-01-26T13:06:40.429Z,36.07
2019-01-26T13:10:49.430Z,37.30
2019-01-26T13:14:57.188Z,39.23
2019-01-26T13:19:04.575Z,37.13
2019-01-26T13:23:12.053Z,38.70
2019-01-26T13:27:18.443Z,39.43
2019-01-26T13:31:26.074Z,40.57
2019-01-26T13:35:32.465Z,37.63
2019-01-26T13:39:38.977Z,37.13
2019-01-26T13:44:06.576Z,37.70
2019-01-26T13:48:13.092Z,38.07
2019-01-26T13:52:19.467Z,40.27
2019-01-26T13:56:25.402Z,37.37
2019-01-26T14:00:32.310Z,39.03
2019-01-26T14:04:40.015Z,38.70
2019-01-26T14:08:45.713Z,42.70
2019-01-26T14:12:52.130Z,40.90
2019-01-26T14:16:59.418Z,42.57
2019-01-26T14:21:06.190Z,40.43
2019-01-26T14:25:12.783Z,39.97
2019-01-26T14:33:28.086Z,40.23
2019-01-26T14:37:34.897Z,39.83
2019-01-26T14:41:40.828Z,43.30
2019-01-26T14:45:47.252Z,44.13
2019-01-26T14:49:58.414Z,44.00
2019-01-26T14:54:04.371Z,40.27
2019-01-26T14:58:10.724Z,43.50
2019-01-26T15:02:17.091Z,42.70
2019-01-26T15:06:27.608Z,43.97
2019-01-26T15:10:40.435Z,43.73
2019-01-26T15:14:46.882Z,41.60
2019-01-26T15:18:55.229Z,43.67
2019-01-26T15:23:04.768Z,45.03
2019-01-26T15:27:11.627Z,44.13
2019-01-26T15:31:18.044Z,43.60
2019-01-26T15:36:09.193Z,42.13
2019-01-26T15:40:14.213Z,40.73
2019-01-26T15:44:22.876Z,44.97
2019-01-26T15:48:29.240Z,45.37
2019-01-26T15:52:38.047Z,47.37
2019-01-26T15:56:44.545Z,48.17
2019-01-26T16:00:52.016Z,48.47
2019-01-26T16:05:00.582Z,48.53
2019-01-26T16:09:09.056Z,47.93
2019-01-26T16:13:15.572Z,66.70
2019-01-26T16:17:24.418Z,50.97
2019-01-26T16:21:32.005Z,49.93
2019-01-26T16:25:38.763Z,49.20
2019-01-26T16:29:45.736Z,49.17
2019-01-26T16:33:53.892Z,46.43
2019-01-26T16:38:00.205Z,47.90
2019-01-26T16:42:07.537Z,46.83
2019-01-26T16:46:13.937Z,49.27
2019-01-26T16:50:27.851Z,46.53
2019-01-26T16:54:32.974Z,48.60
2019-01-26T17:02:50.275Z,45.03
2019-01-26T17:06:57.360Z,47.77
2019-01-26T17:11:04.369Z,47.33
2019-01-26T17:15:14.993Z,49.17
2019-01-26T17:19:23.845Z,46.10
2019-01-26T17:23:32.851Z,48.80
2019-01-26T17:27:39.139Z,45.60
2019-01-26T17:31:46.827Z,45.60
2019-01-26T17:35:53.178Z,43.00
2019-01-26T17:40:01.944Z,45.63
2019-01-26T17:44:08.587Z,46.27
2019-01-26T17:48:14.922Z,46.20
2019-01-26T17:52:21.294Z,48.10
2019-01-26T17:56:28.307Z,45.53
2019-01-26T18:05:03.272Z,44.97
2019-01-26T18:13:19.080Z,47.00
2019-01-26T18:17:25.370Z,46.37
2019-01-26T18:21:33.870Z,48.23
2019-01-26T18:25:42.803Z,46.13
2019-01-26T18:29:52.742Z,47.77
2019-01-26T18:34:00.808Z,48.10
2019-01-26T18:38:07.769Z,46.87
2019-01-26T18:42:15.415Z,46.43
2019-01-26T18:46:24.465Z,43.93
2019-01-26T18:50:34.043Z,48.53
2019-01-26T18:54:44.851Z,50.37
2019-01-26T18:58:51.229Z,48.67
2019-01-26T19:03:11.397Z,50.17
2019-01-26T19:07:17.850Z,42.60
2019-01-26T19:11:24.323Z,52.53
2019-01-26T19:15:31.106Z,52.27
2019-01-26T19:19:38.641Z,52.63
2019-01-26T19:23:46.023Z,49.83
2019-01-26T19:27:52.600Z,46.97
2019-01-26T19:31:59.694Z,51.90
2019-01-26T19:36:06.605Z,46.63
2019-01-26T19:40:18.739Z,50.80
2019-01-26T19:44:25.209Z,50.97
2019-01-26T19:48:32.145Z,51.13
2019-01-26T19:52:40.154Z,48.93
2019-01-26T19:56:46.596Z,47.67
2019-01-26T20:00:52.986Z,47.43
2019-01-26T20:04:58.815Z,50.07
2019-01-26T20:09:09.655Z,52.60
2019-01-26T20:13:17.846Z,56.50
2019-01-26T20:17:27.370Z,52.60
2019-01-26T20:21:34.471Z,53.43
2019-01-26T20:25:42.544Z,49.87
2019-01-26T20:29:48.172Z,51.47
2019-01-26T20:33:54.615Z,44.57
2019-01-26T20:38:01.005Z,50.83
2019-01-26T20:42:09.028Z,51.27
2019-01-26T20:46:35.029Z,52.67
2019-01-26T20:50:41.497Z,51.77
2019-01-26T20:54:47.858Z,51.50
2019-01-26T20:58:57.278Z,54.70
2019-01-26T21:03:05.516Z,56.97
2019-01-26T21:07:13.583Z,54.20
2019-01-26T21:11:19.930Z,50.90
2019-01-26T21:15:27.308Z,53.20
2019-01-26T21:19:33.691Z,52.40
2019-01-26T21:23:41.891Z,51.63
2019-01-26T21:27:48.180Z,48.23
2019-01-26T21:31:55.923Z,53.23
2019-01-26T21:36:02.317Z,49.43
2019-01-26T21:40:14.734Z,51.13
2019-01-26T21:44:21.055Z,51.37
2019-01-26T21:48:27.823Z,54.70
2019-01-26T21:52:40.784Z,51.60
2019-01-26T21:56:43.468Z,51.07
2019-01-26T22:00:50.453Z,52.83
2019-01-26T22:04:58.505Z,53.90
2019-01-26T22:09:08.468Z,55.27
2019-01-26T22:13:14.888Z,51.27
2019-01-26T22:17:23.823Z,53.53
2019-01-26T22:21:30.647Z,50.63
2019-01-26T22:25:38.436Z,52.00
2019-01-26T22:29:45.006Z,49.73
2019-01-26T22:33:52.106Z,50.13
2019-01-26T22:38:00.729Z,50.77
2019-01-26T22:42:08.557Z,54.33
2019-01-26T22:46:14.990Z,55.40
2019-01-26T22:50:21.470Z,55.83
2019-01-26T22:54:28.216Z,56.03
2019-01-26T22:58:34.548Z,53.83
2019-01-26T23:02:42.911Z,53.23
2019-01-26T23:07:05.686Z,56.97
2019-01-26T23:11:29.652Z,55.07
2019-01-26T23:15:49.620Z,56.57
2019-01-26T23:20:35.369Z,53.93
2019-01-26T23:25:08.165Z,55.07
2019-01-26T23:29:29.014Z,55.93
2019-01-26T23:33:36.475Z,56.63
2019-01-26T23:37:42.834Z,57.17
2019-01-26T23:41:50.146Z,59.13
2019-01-26T23:45:58.391Z,57.77
2019-01-26T23:50:06.416Z,57.20
2019-01-26T23:54:13.116Z,60.73
2019-01-26T23:58:19.707Z,56.23
